Latest Weather Observations for Warrnambool

IDV60801

Issued at 8:42 pm EST Saturday 13 April 2024 (issued every 10 minutes, with the page automatically refreshed every 10 minutes)

About weather observations | Map of weather stations | Latest weather observations for VIC | Other Formats
Station Details ID: 090186 Name: WARRNAMBOOL AIRPORT NDB Lat: -38.29 Lon: 142.45 Height: 70.8 m
Data from the previous 72 hours. | See also: Recent months at Warrnambool
Date/Time
EST
Temp
°C
App
Temp
°C
Dew
Point
°C
Rel
Hum
%
Delta-T
°C
Wind Press
QNH
hPa
Press
MSL
hPa
Rain since
9am
mm
Dir  Spd
km/h
Gust
km/h
Spd
kts
Gust
kts
13/08:30pm 12.4 10.8 10.1 86 1.2 W 9 11 5 6 1024.1 1024.1 0.2
13/08:00pm 12.0 10.2 9.4 84 1.3 W 9 9 5 5 1024.1 1024.1 0.2
13/07:30pm 12.8 11.1 9.8 82 1.5 W 9 11 5 6 1024.0 1024.0 0.2
13/07:00pm 12.8 11.1 9.8 82 1.5 WSW 9 9 5 5 1024.0 1024.0 0.2
13/06:30pm 13.0 11.2 9.4 79 1.8 W 9 11 5 6 1023.7 1023.7 0.2
13/06:00pm 14.2 12.1 9.8 75 2.3 WSW 11 15 6 8 1023.4 1023.4 0.2
13/05:30pm 15.4 13.0 11.4 77 2.2 SW 15 19 8 10 1023.2 1023.2 0.2
13/05:00pm 15.3 12.5 11.3 77 2.1 SW 17 22 9 12 1023.1 1023.1 0.2
13/04:30pm 15.6 12.5 10.4 71 2.7 SSW 17 22 9 12 1023.1 1023.1 0.2
13/04:00pm 16.3 12.8 10.2 67 3.2 SW 19 26 10 14 1023.1 1023.1 0.2
13/03:30pm 16.1 12.7 10.4 69 3.0 SW 19 24 10 13 1023.2 1023.2 0.2
13/03:00pm 16.4 13.2 11.3 72 2.7 SSW 19 26 10 14 1023.1 1023.1 0.0
13/02:30pm 16.3 13.3 10.6 69 3.0 SW 17 26 9 14 1023.4 1023.4 0.0
13/02:00pm 16.8 13.5 10.9 68 3.2 SW 19 28 10 15 1023.4 1023.4 0.0
13/01:30pm 16.4 12.6 11.3 72 2.8 SSW 22 28 12 15 1023.6 1023.6 0.0
13/01:00pm 16.9 13.3 10.5 66 3.4 SW 20 28 11 15 1023.8 1023.8 0.0
13/12:30pm 17.3 15.0 9.0 58 4.3 WSW 11 20 6 11 1024.1 1024.1 0.0
13/12:00pm 16.3 13.0 9.7 65 3.4 WSW 17 20 9 11 1024.4 1024.4 0.0
13/11:30am 16.2 14.1 11.2 72 2.7 SW 13 19 7 10 1024.5 1024.5 0.0
13/11:00am 15.3 13.5 10.7 74 2.4 WSW 11 19 6 10 1024.5 1024.5 0.0
13/10:30am 14.6 13.0 11.4 81 1.7 W 11 17 6 9 1024.5 1024.5 0.0
13/10:00am 14.5 13.0 12.0 85 1.3 WNW 11 17 6 9 1024.5 1024.5 0.0
13/09:30am 14.4 12.3 12.3 87 1.1 WNW 15 20 8 11 1024.5 1024.5 0.0
13/09:00am 13.5 11.2 11.7 89 1.0 NW 15 19 8 10 1024.3 1024.3 0.2
13/08:30am 12.7 10.2 11.1 90 0.8 NW 15 20 8 11 1024.0 1024.0 0.2
13/08:00am 12.1 9.9 10.8 92 0.7 NW 13 15 7 8 1023.8 1023.8 0.2
13/07:30am 11.8 10.0 10.9 94 0.5 NW 11 15 6 8 1023.3 1023.3 0.2
13/07:00am 10.9 8.4 9.8 93 0.6 NW 13 15 7 8 1023.1 1023.1 0.2
13/06:30am 11.2 8.9 10.4 95 0.4 NW 13 17 7 9 1023.0 1023.0 0.2
13/06:00am 11.2 8.9 10.3 94 0.5 NW 13 15 7 8 1022.9 1022.9 0.2
13/05:30am 11.1 8.8 10.3 95 0.4 NW 13 15 7 8 1022.8 1022.8 0.2
13/05:00am 11.0 8.6 10.2 95 0.4 NW 13 17 7 9 1022.6 1022.6 0.2
13/04:30am 10.7 7.9 9.9 95 0.4 NW 15 19 8 10 1022.3 1022.3 0.2
13/04:00am 10.2 7.7 9.6 96 0.3 NW 13 17 7 9 1022.3 1022.3 0.2
13/03:30am 9.2 6.0 8.6 96 0.3 NW 15 17 8 9 1022.4 1022.4 0.2
13/03:00am 8.8 6.3 8.2 96 0.3 NW 11 11 6 6 1022.4 1022.4 0.2
13/02:30am 8.9 6.0 8.1 95 0.4 NW 13 15 7 8 1022.7 1022.7 0.2
13/02:00am 9.6 7.2 8.8 95 0.4 NW 11 15 6 8 1022.9 1022.9 0.2
13/01:30am 10.4 8.3 9.8 96 0.3 NW 11 15 6 8 1022.8 1022.8 0.0
13/01:00am 10.4 7.9 9.8 96 0.3 NW 13 15 7 8 1022.7 1022.7 0.0
13/12:30am 9.6 6.8 8.7 94 0.4 NW 13 15 7 8 1022.7 1022.7 0.0
13/12:00am 10.1 7.4 9.0 93 0.5 NW 13 17 7 9 1022.7 1022.7 0.0
 
Date/Time
EST
Temp
°C
App
Temp
°C
Dew
Point
°C
Rel
Hum
%
Delta-T
°C
Wind Press
QNH
hPa
Press
MSL
hPa
Rain since
9am
mm
Dir  Spd
km/h
Gust
km/h
Spd
kts
Gust
kts
12/11:30pm 11.0 8.6 10.2 95 0.4 NW 13 17 7 9 1022.9 1022.9 0.0
12/11:27pm 11.0 8.6 10.2 95 0.4 NW 13 17 7 9 1022.9 1022.9 0.0
12/11:03pm 10.5 8.0 9.7 95 0.4 WNW 13 17 7 9 1023.0 1023.0 0.0
12/11:00pm 10.3 8.1 9.5 95 0.4 WNW 11 17 6 9 1023.0 1023.0 0.0
12/10:30pm 8.3 6.0 7.4 94 0.4 NW 9 11 5 6 1022.9 1022.9 0.0
12/10:00pm 8.4 5.7 7.5 94 0.4 NW 11 13 6 7 1022.9 1022.9 0.0
12/09:30pm 10.5 8.7 9.3 92 0.6 WNW 9 13 5 7 1023.0 1023.0 0.0
12/09:00pm 11.2 8.7 9.8 91 0.7 WNW 13 17 7 9 1022.9 1022.9 0.0
12/08:30pm 10.7 8.9 9.5 92 0.6 WNW 9 11 5 6 1022.8 1022.8 0.0
12/08:00pm 11.3 9.9 9.7 90 0.8 WNW 7 9 4 5 1022.7 1022.7 0.0
12/07:30pm 10.7 9.1 8.8 88 0.9 WNW 7 9 4 5 1022.6 1022.6 0.0
12/07:00pm 11.9 10.2 10.0 88 1.0 W 9 9 5 5 1022.4 1022.4 0.0
12/06:30pm 12.1 10.0 9.7 85 1.2 SW 11 15 6 8 1022.2 1022.2 0.0
12/06:00pm 13.6 10.7 9.6 77 2.0 SW 15 20 8 11 1022.0 1022.0 0.0
12/05:30pm 14.2 10.8 10.6 79 1.9 SW 19 22 10 12 1021.8 1021.8 0.0
12/05:00pm 14.3 10.5 9.9 75 2.3 SW 20 26 11 14 1021.6 1021.6 0.0
12/04:30pm 15.2 11.5 10.0 71 2.7 SSW 20 26 11 14 1021.6 1021.6 0.0
12/04:00pm 15.1 11.6 10.9 76 2.2 SW 20 26 11 14 1021.7 1021.7 0.0
12/03:30pm 15.8 12.2 9.9 68 3.1 SW 19 28 10 15 1021.7 1021.7 0.0
12/03:00pm 15.4 10.8 9.5 68 3.0 SW 24 30 13 16 1021.9 1021.9 0.0
12/02:30pm 16.4 12.4 10.5 68 3.1 SW 22 32 12 17 1022.0 1022.0 0.0
12/02:00pm 16.3 13.1 9.9 66 3.4 SW 17 24 9 13 1022.3 1022.3 0.0
12/01:30pm 14.6 10.9 11.4 81 1.7 SSW 22 30 12 16 1022.7 1022.7 0.0
12/01:00pm 16.3 13.2 10.2 67 3.2 WSW 17 24 9 13 1023.1 1023.1 0.0
12/12:30pm 15.4 11.3 10.2 71 2.7 WSW 22 26 12 14 1023.5 1023.5 0.0
12/12:00pm 14.9 11.2 10.1 73 2.5 WSW 20 30 11 16 1023.8 1023.8 0.0
12/11:30am 14.2 10.8 11.4 83 1.5 W 20 30 11 16 1024.0 1024.0 0.0
12/11:00am 15.2 12.1 10.4 73 2.5 W 17 24 9 13 1024.0 1024.0 0.0
12/10:56am 14.7 11.3 10.7 77 2.1 W 19 26 10 14 1024.0 1024.0 0.0
12/10:46am 13.9 10.3 10.5 80 1.8 W 20 30 11 16 1024.1 1024.1 0.0
12/10:43am 14.6 11.0 10.6 77 2.1 W 20 30 11 16 1024.1 1024.1 0.0
12/10:31am 14.5 10.5 10.5 77 2.1 W 22 30 12 16 1024.1 1024.1 0.0
12/10:30am 14.5 10.6 10.9 79 1.9 W 22 30 12 16 1024.1 1024.1 0.0
12/10:24am 14.6 10.9 10.2 75 2.3 W 20 30 11 16 1024.1 1024.1 0.0
12/10:09am 14.5 11.1 10.7 78 2.0 W 19 30 10 16 1024.0 1024.0 0.0
12/10:00am 13.6 10.4 9.8 78 2.0 WNW 17 28 9 15 1024.0 1024.0 0.0
12/09:30am 13.7 10.7 10.7 82 1.6 WNW 17 24 9 13 1024.0 1024.0 0.0
12/09:00am 12.4 10.1 10.6 89 0.9 WNW 13 19 7 10 1024.0 1024.0 0.2
12/08:30am 12.3 10.4 10.5 89 0.9 WNW 11 17 6 9 1024.0 1024.0 0.2
12/08:00am 10.9 8.9 10.1 95 0.4 WNW 11 17 6 9 1023.7 1023.7 0.2
12/07:30am 10.4 8.3 9.6 95 0.4 NW 11 13 6 7 1023.3 1023.3 0.2
12/07:00am 9.4 7.0 8.6 95 0.4 NW 11 15 6 8 1023.3 1023.3 0.2
12/06:30am 10.1 7.9 9.3 95 0.4 NW 11 13 6 7 1023.2 1023.2 0.2
12/06:00am 10.0 7.0 9.2 95 0.4 NW 15 19 8 10 1023.1 1023.1 0.2
12/05:30am 10.1 7.5 9.5 96 0.3 WNW 13 19 7 10 1023.0 1023.0 0.2
12/05:00am 8.7 5.3 7.6 93 0.5 NW 15 17 8 9 1022.8 1022.8 0.2
12/04:30am 10.3 8.4 9.2 93 0.5 NW 9 13 5 7 1022.8 1022.8 0.2
12/04:00am 10.0 8.5 9.1 94 0.4 NNW 7 9 4 5 1022.6 1022.6 0.2
12/03:57am 10.1 8.6 9.2 94 0.4 NNW 7 9 4 5 1022.7 1022.7 0.2
12/03:33am 10.2 8.7 9.3 94 0.4 W 7 9 4 5 1022.9 1022.9 0.2
12/03:30am 10.1 8.6 9.0 93 0.5 W 7 9 4 5 1022.9 1022.9 0.2
12/03:00am 9.9 7.6 9.0 94 0.4 NW 11 13 6 7 1022.8 1022.8 0.2
12/02:30am 9.2 6.7 8.3 94 0.4 NW 11 13 6 7 1023.0 1023.0 0.2
12/02:00am 9.2 6.5 7.3 88 0.9 WNW 11 13 6 7 1023.2 1023.2 0.2
12/01:30am 10.9 8.0 8.3 84 1.3 WNW 13 15 7 8 1023.5 1023.5 0.2
12/01:00am 11.7 10.4 9.1 84 1.3 W 6 11 3 6 1023.6 1023.6 0.2
12/12:30am 10.8 8.8 8.6 86 1.1 WNW 9 13 5 7 1023.6 1023.6 0.2
12/12:00am 11.3 9.6 8.3 82 1.5 NW 7 9 4 5 1023.6 1023.6 0.2
 
Date/Time
EST
Temp
°C
App
Temp
°C
Dew
Point
°C
Rel
Hum
%
Delta-T
°C
Wind Press
QNH
hPa
Press
MSL
hPa
Rain since
9am
mm
Dir  Spd
km/h
Gust
km/h
Spd
kts
Gust
kts
11/11:30pm 11.9 10.3 8.6 80 1.6 NW 7 11 4 6 1023.7 1023.7 0.2
11/11:00pm 11.5 9.4 8.4 81 1.5 NW 9 11 5 6 1024.0 1024.0 0.2
11/10:30pm 11.9 9.2 8.9 82 1.5 W 13 17 7 9 1024.3 1024.3 0.2
11/10:00pm 10.9 8.9 8.5 85 1.2 WNW 9 11 5 6 1024.3 1024.3 0.2
11/09:30pm 11.0 8.4 7.9 81 1.5 WNW 11 13 6 7 1024.3 1024.3 0.2
11/09:00pm 12.2 10.2 8.5 78 1.8 W 9 11 5 6 1024.2 1024.2 0.2
11/08:30pm 11.3 8.8 8.2 81 1.5 W 11 13 6 7 1024.1 1024.1 0.2
11/08:00pm 11.2 8.2 7.9 80 1.6 WSW 13 15 7 8 1024.2 1024.2 0.2
11/07:30pm 12.5 9.8 7.2 70 2.6 WSW 11 13 6 7 1024.2 1024.2 0.2
11/07:00pm 13.5 10.5 7.9 69 2.8 WSW 13 15 7 8 1024.3 1024.3 0.2
11/06:30pm 13.7 10.5 7.0 64 3.3 WSW 13 17 7 9 1024.2 1024.2 0.2
11/06:00pm 14.2 11.2 7.5 64 3.3 SW 13 17 7 9 1024.2 1024.2 0.2
11/05:30pm 14.1 12.3 9.5 74 2.4 S 9 15 5 8 1024.2 1024.2 0.2
11/05:00pm 14.8 10.5 6.9 59 3.9 SW 19 24 10 13 1024.1 1024.1 0.2
11/04:30pm 15.7 11.9 7.5 58 4.1 WSW 17 24 9 13 1024.0 1024.0 0.2
11/04:00pm 16.2 11.2 6.3 52 4.8 SSW 22 32 12 17 1023.8 1023.8 0.2
11/03:30pm 15.8 12.0 7.6 58 4.1 SW 17 24 9 13 1023.9 1023.9 0.2
11/03:00pm 15.9 11.7 7.4 57 4.2 SW 19 24 10 13 1024.0 1024.0 0.2
11/02:30pm 15.9 11.7 8.2 60 3.9 SW 20 26 11 14 1024.0 1024.0 0.2
11/02:00pm 15.7 11.4 7.7 59 4.0 SW 20 26 11 14 1024.1 1024.1 0.2
11/01:30pm 16.2 12.1 8.7 61 3.8 SW 20 32 11 17 1024.1 1024.1 0.2
11/01:00pm 16.2 12.0 9.6 65 3.4 SSW 22 28 12 15 1024.3 1024.3 0.2
11/12:30pm 16.1 12.3 9.8 66 3.3 SSW 20 28 11 15 1024.7 1024.7 0.0
11/12:00pm 17.0 12.3 9.2 60 4.0 SSW 24 30 13 16 1024.9 1024.9 0.0
11/11:30am 17.1 13.2 9.3 60 4.1 SW 20 30 11 16 1024.8 1024.8 0.0
11/11:00am 15.8 12.1 10.3 70 2.9 SSW 20 26 11 14 1024.8 1024.8 0.0
11/10:30am 15.9 12.5 10.4 70 2.9 SSW 19 26 10 14 1024.8 1024.8 0.0
11/10:00am 13.5 11.5 11.6 88 1.0 WSW 13 17 7 9 1024.8 1024.8 0.0
11/09:46am 13.4 10.2 11.8 90 0.9 WSW 20 28 11 15 1024.8 1024.8 0.0
11/09:30am 13.9 9.6 10.9 82 1.6 WSW 24 30 13 16 1024.7 1024.7 0.0
11/09:00am 14.5 11.5 10.7 78 2.0 SW 17 22 9 12 1024.6 1024.6 1.4
11/08:30am 14.3 11.7 9.5 73 2.5 SW 13 17 7 9 1024.3 1024.3 1.4
11/08:00am 13.7 11.4 9.0 73 2.4 WSW 11 13 6 7 1024.0 1024.0 1.4
11/07:30am 13.2 11.2 8.5 73 2.4 WSW 9 13 5 7 1023.6 1023.6 1.4
11/07:00am 12.6 9.5 8.9 78 1.9 SSW 15 19 8 10 1023.4 1023.4 1.4
11/06:30am 12.7 10.7 10.2 85 1.3 W 11 15 6 8 1023.1 1023.1 1.4
11/06:00am 12.5 10.2 10.6 88 1.0 W 13 17 7 9 1023.0 1023.0 1.4
11/05:30am 12.6 9.6 10.8 89 0.9 W 17 20 9 11 1022.9 1022.9 1.4
11/05:08am 12.7 8.7 10.6 87 1.1 SW 22 30 12 16 1022.8 1022.8 1.4
11/05:00am 12.9 9.5 10.6 86 1.2 SW 19 24 10 13 1022.8 1022.8 1.4
11/04:41am 13.4 11.0 11.3 87 1.1 SW 15 19 8 10 1022.7 1022.7 1.4
11/04:30am 12.9 11.0 10.4 85 1.3 SSW 11 15 6 8 1022.6 1022.6 1.4
11/04:00am 12.7 10.7 10.1 84 1.3 W 11 13 6 7 1022.5 1022.5 1.4
11/03:30am 12.7 10.3 9.9 83 1.4 W 13 15 7 8 1022.5 1022.5 1.4
11/03:00am 12.8 9.6 9.8 82 1.5 W 17 20 9 11 1022.6 1022.6 1.4
11/02:30am 13.0 9.9 10.4 84 1.4 WSW 17 19 9 10 1022.7 1022.7 1.4
11/02:00am 13.1 10.4 10.3 83 1.4 WSW 15 20 8 11 1022.8 1022.8 1.4
11/01:30am 13.0 10.5 10.9 87 1.1 WSW 15 17 8 9 1022.9 1022.9 1.4
11/01:00am 12.9 9.9 11.8 93 0.6 WSW 19 24 10 13 1023.0 1023.0 1.4
11/12:59am 12.9 9.9 11.8 93 0.6 WSW 19 24 10 13 1023.0 1023.0 1.4
11/12:39am 12.7 8.8 12.1 96 0.3 SW 24 30 13 16 1023.1 1023.1 1.4
11/12:30am 12.8 8.9 12.2 96 0.3 SSW 24 32 13 17 1023.1 1023.1 1.4
11/12:07am 13.2 10.2 12.4 95 0.4 SW 20 32 11 17 1023.1 1023.1 1.4
11/12:00am 13.3 10.3 12.4 94 0.5 SW 20 30 11 16 1023.1 1023.1 1.2
 
Date/Time
EST
Temp
°C
App
Temp
°C
Dew
Point
°C
Rel
Hum
%
Delta-T
°C
Wind Press
QNH
hPa
Press
MSL
hPa
Rain since
9am
mm
Dir  Spd
km/h
Gust
km/h
Spd
kts
Gust
kts
10/11:55pm 12.9 9.7 11.8 93 0.6 SW 20 30 11 16 1023.1 1023.1 1.2
10/11:52pm 13.0 10.4 11.9 93 0.6 SW 17 28 9 15 1023.2 1023.2 1.2
10/11:35pm 12.9 9.4 12.1 95 0.4 SW 22 32 12 17 1023.2 1023.2 1.2
10/11:30pm 13.2 9.8 12.4 95 0.4 SW 22 28 12 15 1023.3 1023.3 1.2
10/11:23pm 13.2 10.2 12.4 95 0.4 SW 20 28 11 15 1023.3 1023.3 1.2
10/11:00pm 13.2 10.7 12.4 95 0.4 SW 17 22 9 12 1023.4 1023.4 1.0
10/10:59pm 13.2 10.7 12.4 95 0.4 SW 17 22 9 12 1023.4 1023.4 1.0
10/10:40pm 13.0 10.5 12.2 95 0.4 SW 17 20 9 11 1023.5 1023.5 1.0
10/10:35pm 13.1 10.3 12.5 96 0.3 SW 19 24 10 13 1023.6 1023.6 1.0
10/10:30pm 13.2 10.2 12.6 96 0.3 SSW 20 26 11 14 1023.6 1023.6 1.0
10/10:00pm 13.1 11.0 12.5 96 0.3 SW 15 20 8 11 1023.6 1023.6 0.6
10/09:42pm 13.2 11.2 12.6 96 0.3 WSW 15 20 8 11 1023.5 1023.5 0.4
10/09:38pm 13.0 11.2 12.2 95 0.4 WSW 13 15 7 8 1023.5 1023.5 0.4
10/09:30pm 12.9 11.5 12.1 95 0.4 WSW 11 17 6 9 1023.5 1023.5 0.4
10/09:14pm 13.1 11.3 12.2 94 0.5 WNW 13 15 7 8 1023.6 1023.6 0.2
10/09:00pm 12.8 11.6 11.7 93 0.6 W 9 15 5 8 1023.5 1023.5 0.2
10/08:45pm 12.8 11.2 11.5 92 0.7 WNW 11 15 6 8 1023.5 1023.5 0.2

Other formats

Comma delimited format used in spreadsheet applications
http://www.bom.gov.au/fwo/IDV60801/IDV60801.94837.axf

JavaScript Object Notation format (JSON) in row-major order
http://www.bom.gov.au/fwo/IDV60801/IDV60801.94837.json

Data quality

Most of these data are generated automatically and are frequently updated. Quality checks on data are not normally performed. It is possible for incorrect values to appear. Refer to information at About Latest Weather Observations and please check the disclaimer before using these data.